sensor_id;sensor_type;location;lat;lon;timestamp;P1;durP1;ratioP1;P2;durP2;ratioP2
22234;SDS011;11286;45.596;5.284;2023-03-14T00:00:09;4.00;;;1.23;;
22234;SDS011;11286;45.596;5.284;2023-03-14T00:02:36;2.95;;;1.63;;
22234;SDS011;11286;45.596;5.284;2023-03-14T00:05:02;1.10;;;1.00;;
22234;SDS011;11286;45.596;5.284;2023-03-14T00:07:32;2.72;;;1.30;;
22234;SDS011;11286;45.596;5.284;2023-03-14T00:10:05;1.45;;;0.98;;
22234;SDS011;11286;45.596;5.284;2023-03-14T00:12:33;4.30;;;2.10;;
22234;SDS011;11286;45.596;5.284;2023-03-14T00:14:59;4.15;;;1.00;;
22234;SDS011;11286;45.596;5.284;2023-03-14T00:17:29;1.27;;;0.88;;
22234;SDS011;11286;45.596;5.284;2023-03-14T00:19:55;2.55;;;0.90;;
22234;SDS011;11286;45.596;5.284;2023-03-14T00:22:21;2.35;;;1.10;;
22234;SDS011;11286;45.596;5.284;2023-03-14T00:24:47;1.35;;;1.15;;
22234;SDS011;11286;45.596;5.284;2023-03-14T00:27:12;1.52;;;1.15;;
22234;SDS011;11286;45.596;5.284;2023-03-14T00:29:38;2.25;;;0.90;;
22234;SDS011;11286;45.596;5.284;2023-03-14T00:32:04;1.20;;;0.80;;
22234;SDS011;11286;45.596;5.284;2023-03-14T00:34:30;1.77;;;0.70;;
22234;SDS011;11286;45.596;5.284;2023-03-14T00:36:56;1.00;;;0.70;;
22234;SDS011;11286;45.596;5.284;2023-03-14T00:39:22;1.38;;;0.70;;
22234;SDS011;11286;45.596;5.284;2023-03-14T00:41:48;0.85;;;0.55;;
22234;SDS011;11286;45.596;5.284;2023-03-14T00:44:14;1.63;;;0.70;;
22234;SDS011;11286;45.596;5.284;2023-03-14T00:46:39;3.50;;;0.52;;
22234;SDS011;11286;45.596;5.284;2023-03-14T00:49:05;2.10;;;1.00;;
22234;SDS011;11286;45.596;5.284;2023-03-14T00:51:30;1.70;;;0.70;;
22234;SDS011;11286;45.596;5.284;2023-03-14T00:53:56;1.33;;;0.77;;
22234;SDS011;11286;45.596;5.284;2023-03-14T00:56:22;0.52;;;0.50;;
22234;SDS011;11286;45.596;5.284;2023-03-14T00:58:47;0.50;;;0.47;;
22234;SDS011;11286;45.596;5.284;2023-03-14T01:01:17;0.60;;;0.50;;
22234;SDS011;11286;45.596;5.284;2023-03-14T01:03:43;1.38;;;0.80;;
22234;SDS011;11286;45.596;5.284;2023-03-14T01:06:10;2.05;;;0.65;;
22234;SDS011;11286;45.596;5.284;2023-03-14T01:08:38;2.05;;;0.65;;
22234;SDS011;11286;45.596;5.284;2023-03-14T01:11:10;1.27;;;0.70;;
22234;SDS011;11286;45.596;5.284;2023-03-14T01:13:38;2.10;;;1.40;;
22234;SDS011;11286;45.596;5.284;2023-03-14T01:16:05;2.50;;;1.33;;
22234;SDS011;11286;45.596;5.284;2023-03-14T01:18:33;1.52;;;1.40;;
22234;SDS011;11286;45.596;5.284;2023-03-14T01:21:03;1.35;;;1.00;;
22234;SDS011;11286;45.596;5.284;2023-03-14T01:23:34;1.77;;;0.55;;
22234;SDS011;11286;45.596;5.284;2023-03-14T01:25:59;0.50;;;0.50;;
22234;SDS011;11286;45.596;5.284;2023-03-14T01:28:25;2.03;;;0.63;;
22234;SDS011;11286;45.596;5.284;2023-03-14T01:30:51;0.95;;;0.68;;
22234;SDS011;11286;45.596;5.284;2023-03-14T01:33:16;1.13;;;0.60;;
22234;SDS011;11286;45.596;5.284;2023-03-14T01:35:42;0.75;;;0.63;;
22234;SDS011;11286;45.596;5.284;2023-03-14T01:38:08;1.98;;;0.77;;
22234;SDS011;11286;45.596;5.284;2023-03-14T01:40:33;0.50;;;0.50;;
22234;SDS011;11286;45.596;5.284;2023-03-14T01:43:05;1.05;;;0.60;;
22234;SDS011;11286;45.596;5.284;2023-03-14T01:48:23;0.63;;;0.60;;
22234;SDS011;11286;45.596;5.284;2023-03-14T01:50:50;1.10;;;0.70;;
22234;SDS011;11286;45.596;5.284;2023-03-14T01:53:16;0.57;;;0.57;;
22234;SDS011;11286;45.596;5.284;2023-03-14T01:55:46;0.70;;;0.70;;
22234;SDS011;11286;45.596;5.284;2023-03-14T01:58:13;0.82;;;0.80;;
22234;SDS011;11286;45.596;5.284;2023-03-14T02:00:41;0.70;;;0.50;;
22234;SDS011;11286;45.596;5.284;2023-03-14T02:03:11;0.45;;;0.45;;
22234;SDS011;11286;45.596;5.284;2023-03-14T02:05:41;0.40;;;0.40;;
22234;SDS011;11286;45.596;5.284;2023-03-14T02:08:13;0.40;;;0.40;;
22234;SDS011;11286;45.596;5.284;2023-03-14T02:10:42;0.80;;;0.30;;
22234;SDS011;11286;45.596;5.284;2023-03-14T02:13:10;0.90;;;0.60;;
22234;SDS011;11286;45.596;5.284;2023-03-14T02:15:37;1.73;;;0.47;;
22234;SDS011;11286;45.596;5.284;2023-03-14T02:18:04;0.75;;;0.30;;
22234;SDS011;11286;45.596;5.284;2023-03-14T02:23:15;1.05;;;0.45;;
22234;SDS011;11286;45.596;5.284;2023-03-14T02:26:03;1.48;;;0.50;;
22234;SDS011;11286;45.596;5.284;2023-03-14T02:28:37;0.43;;;0.32;;
22234;SDS011;11286;45.596;5.284;2023-03-14T02:31:03;0.40;;;0.40;;
22234;SDS011;11286;45.596;5.284;2023-03-14T02:33:29;0.65;;;0.40;;
22234;SDS011;11286;45.596;5.284;2023-03-14T02:36:02;1.02;;;0.57;;
22234;SDS011;11286;45.596;5.284;2023-03-14T02:41:23;1.42;;;0.55;;
22234;SDS011;11286;45.596;5.284;2023-03-14T02:43:49;0.50;;;0.45;;
22234;SDS011;11286;45.596;5.284;2023-03-14T02:46:18;2.10;;;0.60;;
22234;SDS011;11286;45.596;5.284;2023-03-14T02:48:47;0.77;;;0.40;;
22234;SDS011;11286;45.596;5.284;2023-03-14T02:51:19;1.10;;;0.50;;
22234;SDS011;11286;45.596;5.284;2023-03-14T02:53:46;1.77;;;0.73;;
22234;SDS011;11286;45.596;5.284;2023-03-14T02:56:11;1.02;;;0.50;;
22234;SDS011;11286;45.596;5.284;2023-03-14T02:58:37;0.40;;;0.40;;
22234;SDS011;11286;45.596;5.284;2023-03-14T03:01:03;0.90;;;0.50;;
22234;SDS011;11286;45.596;5.284;2023-03-14T03:03:29;2.22;;;0.57;;
22234;SDS011;11286;45.596;5.284;2023-03-14T03:05:55;1.08;;;0.70;;
22234;SDS011;11286;45.596;5.284;2023-03-14T03:08:22;1.40;;;0.70;;
22234;SDS011;11286;45.596;5.284;2023-03-14T03:10:50;1.55;;;0.75;;
22234;SDS011;11286;45.596;5.284;2023-03-14T03:13:16;1.92;;;0.73;;
22234;SDS011;11286;45.596;5.284;2023-03-14T03:15:42;2.60;;;0.50;;
22234;SDS011;11286;45.596;5.284;2023-03-14T03:18:09;2.72;;;0.82;;
22234;SDS011;11286;45.596;5.284;2023-03-14T03:20:35;1.48;;;0.50;;
22234;SDS011;11286;45.596;5.284;2023-03-14T03:23:01;1.52;;;0.73;;
22234;SDS011;11286;45.596;5.284;2023-03-14T03:25:27;1.20;;;0.88;;
22234;SDS011;11286;45.596;5.284;2023-03-14T03:27:53;0.73;;;0.50;;
22234;SDS011;11286;45.596;5.284;2023-03-14T03:30:18;0.85;;;0.50;;
22234;SDS011;11286;45.596;5.284;2023-03-14T03:32:44;1.10;;;0.55;;
22234;SDS011;11286;45.596;5.284;2023-03-14T03:35:10;2.00;;;0.57;;
22234;SDS011;11286;45.596;5.284;2023-03-14T03:37:36;1.52;;;0.50;;
22234;SDS011;11286;45.596;5.284;2023-03-14T03:40:02;3.28;;;0.65;;
22234;SDS011;11286;45.596;5.284;2023-03-14T03:42:31;1.17;;;0.50;;
22234;SDS011;11286;45.596;5.284;2023-03-14T03:44:57;1.10;;;0.50;;
22234;SDS011;11286;45.596;5.284;2023-03-14T03:47:24;1.52;;;0.55;;
22234;SDS011;11286;45.596;5.284;2023-03-14T03:49:49;1.55;;;0.45;;
22234;SDS011;11286;45.596;5.284;2023-03-14T03:52:15;0.40;;;0.30;;
22234;SDS011;11286;45.596;5.284;2023-03-14T03:54:41;1.80;;;0.50;;
22234;SDS011;11286;45.596;5.284;2023-03-14T03:57:06;2.00;;;0.50;;
22234;SDS011;11286;45.596;5.284;2023-03-14T03:59:32;3.97;;;1.00;;
22234;SDS011;11286;45.596;5.284;2023-03-14T04:01:58;0.63;;;0.52;;
22234;SDS011;11286;45.596;5.284;2023-03-14T04:04:23;2.25;;;0.60;;
22234;SDS011;11286;45.596;5.284;2023-03-14T04:06:49;1.73;;;0.75;;
22234;SDS011;11286;45.596;5.284;2023-03-14T04:09:15;1.02;;;0.60;;
22234;SDS011;11286;45.596;5.284;2023-03-14T04:11:40;0.50;;;0.43;;
22234;SDS011;11286;45.596;5.284;2023-03-14T04:14:06;2.08;;;0.70;;
22234;SDS011;11286;45.596;5.284;2023-03-14T04:16:32;1.38;;;0.65;;
22234;SDS011;11286;45.596;5.284;2023-03-14T04:18:58;0.75;;;0.50;;
22234;SDS011;11286;45.596;5.284;2023-03-14T04:21:24;0.93;;;0.60;;
22234;SDS011;11286;45.596;5.284;2023-03-14T04:23:49;0.43;;;0.40;;
22234;SDS011;11286;45.596;5.284;2023-03-14T04:26:15;1.60;;;0.50;;
22234;SDS011;11286;45.596;5.284;2023-03-14T04:28:41;1.25;;;0.70;;
22234;SDS011;11286;45.596;5.284;2023-03-14T04:31:13;0.73;;;0.43;;
22234;SDS011;11286;45.596;5.284;2023-03-14T04:33:40;2.10;;;0.52;;
22234;SDS011;11286;45.596;5.284;2023-03-14T04:36:06;1.08;;;0.50;;
22234;SDS011;11286;45.596;5.284;2023-03-14T04:38:33;2.33;;;0.60;;
22234;SDS011;11286;45.596;5.284;2023-03-14T04:40:59;1.45;;;0.47;;
22234;SDS011;11286;45.596;5.284;2023-03-14T04:43:25;0.63;;;0.40;;
22234;SDS011;11286;45.596;5.284;2023-03-14T04:45:55;1.95;;;0.73;;
22234;SDS011;11286;45.596;5.284;2023-03-14T04:48:21;1.27;;;0.50;;
22234;SDS011;11286;45.596;5.284;2023-03-14T04:50:47;1.88;;;0.45;;
22234;SDS011;11286;45.596;5.284;2023-03-14T04:53:13;0.88;;;0.40;;
22234;SDS011;11286;45.596;5.284;2023-03-14T04:55:39;1.45;;;0.50;;
22234;SDS011;11286;45.596;5.284;2023-03-14T04:58:05;1.60;;;0.50;;
22234;SDS011;11286;45.596;5.284;2023-03-14T05:00:31;0.95;;;0.60;;
22234;SDS011;11286;45.596;5.284;2023-03-14T05:02:57;0.77;;;0.50;;
22234;SDS011;11286;45.596;5.284;2023-03-14T05:05:22;2.08;;;0.60;;
22234;SDS011;11286;45.596;5.284;2023-03-14T05:07:48;0.95;;;0.52;;
22234;SDS011;11286;45.596;5.284;2023-03-14T05:10:14;2.25;;;0.47;;
22234;SDS011;11286;45.596;5.284;2023-03-14T05:12:40;2.33;;;0.45;;
22234;SDS011;11286;45.596;5.284;2023-03-14T05:15:05;1.50;;;0.50;;
22234;SDS011;11286;45.596;5.284;2023-03-14T05:17:32;1.23;;;0.38;;
22234;SDS011;11286;45.596;5.284;2023-03-14T05:19:58;0.90;;;0.50;;
22234;SDS011;11286;45.596;5.284;2023-03-14T05:22:23;2.17;;;0.60;;
22234;SDS011;11286;45.596;5.284;2023-03-14T05:24:49;2.22;;;0.60;;
22234;SDS011;11286;45.596;5.284;2023-03-14T05:27:15;2.95;;;0.70;;
22234;SDS011;11286;45.596;5.284;2023-03-14T05:29:41;1.63;;;0.50;;
22234;SDS011;11286;45.596;5.284;2023-03-14T05:32:06;0.68;;;0.40;;
22234;SDS011;11286;45.596;5.284;2023-03-14T05:34:32;0.57;;;0.40;;
22234;SDS011;11286;45.596;5.284;2023-03-14T05:36:58;2.22;;;0.50;;
22234;SDS011;11286;45.596;5.284;2023-03-14T05:39:23;2.85;;;0.50;;
22234;SDS011;11286;45.596;5.284;2023-03-14T05:41:49;1.48;;;0.43;;
22234;SDS011;11286;45.596;5.284;2023-03-14T05:44:16;1.60;;;0.70;;
22234;SDS011;11286;45.596;5.284;2023-03-14T05:46:41;2.08;;;0.60;;
22234;SDS011;11286;45.596;5.284;2023-03-14T05:49:07;1.73;;;0.60;;
22234;SDS011;11286;45.596;5.284;2023-03-14T05:51:33;2.30;;;0.77;;
22234;SDS011;11286;45.596;5.284;2023-03-14T05:53:58;2.08;;;0.65;;
22234;SDS011;11286;45.596;5.284;2023-03-14T05:56:24;2.70;;;0.80;;
22234;SDS011;11286;45.596;5.284;2023-03-14T05:58:49;2.42;;;0.75;;
22234;SDS011;11286;45.596;5.284;2023-03-14T06:01:15;4.88;;;1.10;;
22234;SDS011;11286;45.596;5.284;2023-03-14T06:03:41;1.45;;;0.88;;
22234;SDS011;11286;45.596;5.284;2023-03-14T06:06:06;2.58;;;1.05;;
22234;SDS011;11286;45.596;5.284;2023-03-14T06:08:32;2.35;;;1.17;;
22234;SDS011;11286;45.596;5.284;2023-03-14T06:10:59;4.35;;;1.00;;
22234;SDS011;11286;45.596;5.284;2023-03-14T06:13:27;1.50;;;0.98;;
22234;SDS011;11286;45.596;5.284;2023-03-14T06:15:53;2.50;;;0.95;;
22234;SDS011;11286;45.596;5.284;2023-03-14T06:18:18;2.10;;;0.80;;
22234;SDS011;11286;45.596;5.284;2023-03-14T06:20:44;1.58;;;0.70;;
22234;SDS011;11286;45.596;5.284;2023-03-14T06:23:10;3.40;;;0.90;;
22234;SDS011;11286;45.596;5.284;2023-03-14T06:25:36;2.75;;;0.80;;
22234;SDS011;11286;45.596;5.284;2023-03-14T06:28:02;2.40;;;0.60;;
22234;SDS011;11286;45.596;5.284;2023-03-14T06:30:28;1.13;;;0.50;;
22234;SDS011;11286;45.596;5.284;2023-03-14T06:32:54;1.73;;;0.52;;
22234;SDS011;11286;45.596;5.284;2023-03-14T06:35:20;2.88;;;0.80;;
22234;SDS011;11286;45.596;5.284;2023-03-14T06:37:47;1.73;;;0.90;;
22234;SDS011;11286;45.596;5.284;2023-03-14T06:40:12;1.02;;;0.50;;
22234;SDS011;11286;45.596;5.284;2023-03-14T06:42:42;2.35;;;1.30;;
22234;SDS011;11286;45.596;5.284;2023-03-14T06:45:08;0.95;;;0.60;;
22234;SDS011;11286;45.596;5.284;2023-03-14T06:47:34;1.38;;;0.88;;
22234;SDS011;11286;45.596;5.284;2023-03-14T06:50:00;1.00;;;0.90;;
22234;SDS011;11286;45.596;5.284;2023-03-14T06:52:26;0.77;;;0.55;;
22234;SDS011;11286;45.596;5.284;2023-03-14T06:54:51;1.90;;;0.70;;
22234;SDS011;11286;45.596;5.284;2023-03-14T06:57:17;1.08;;;0.70;;
22234;SDS011;11286;45.596;5.284;2023-03-14T06:59:42;1.50;;;0.80;;
22234;SDS011;11286;45.596;5.284;2023-03-14T07:02:11;1.58;;;0.88;;
22234;SDS011;11286;45.596;5.284;2023-03-14T07:04:38;1.70;;;0.63;;
22234;SDS011;11286;45.596;5.284;2023-03-14T07:07:04;1.95;;;0.75;;
22234;SDS011;11286;45.596;5.284;2023-03-14T07:09:30;1.98;;;0.90;;
22234;SDS011;11286;45.596;5.284;2023-03-14T07:11:56;2.50;;;0.70;;
22234;SDS011;11286;45.596;5.284;2023-03-14T07:14:22;2.42;;;1.00;;
22234;SDS011;11286;45.596;5.284;2023-03-14T07:16:48;2.15;;;1.00;;
22234;SDS011;11286;45.596;5.284;2023-03-14T07:19:13;3.88;;;1.05;;
22234;SDS011;11286;45.596;5.284;2023-03-14T07:21:42;3.13;;;0.93;;
22234;SDS011;11286;45.596;5.284;2023-03-14T07:24:08;4.03;;;1.45;;
22234;SDS011;11286;45.596;5.284;2023-03-14T07:26:34;3.65;;;1.00;;
22234;SDS011;11286;45.596;5.284;2023-03-14T07:29:00;3.15;;;0.75;;
22234;SDS011;11286;45.596;5.284;2023-03-14T07:31:28;3.40;;;0.77;;
22234;SDS011;11286;45.596;5.284;2023-03-14T07:33:54;10.73;;;1.52;;
22234;SDS011;11286;45.596;5.284;2023-03-14T07:36:20;3.63;;;2.22;;
22234;SDS011;11286;45.596;5.284;2023-03-14T07:38:46;5.25;;;1.73;;
22234;SDS011;11286;45.596;5.284;2023-03-14T07:41:12;6.25;;;1.30;;
22234;SDS011;11286;45.596;5.284;2023-03-14T07:43:38;5.30;;;1.50;;
22234;SDS011;11286;45.596;5.284;2023-03-14T07:46:04;7.55;;;1.75;;
22234;SDS011;11286;45.596;5.284;2023-03-14T07:48:30;3.38;;;1.50;;
22234;SDS011;11286;45.596;5.284;2023-03-14T07:50:56;4.63;;;1.30;;
22234;SDS011;11286;45.596;5.284;2023-03-14T07:53:22;4.65;;;1.65;;
22234;SDS011;11286;45.596;5.284;2023-03-14T07:55:49;6.05;;;1.45;;
22234;SDS011;11286;45.596;5.284;2023-03-14T07:58:16;2.45;;;1.08;;
22234;SDS011;11286;45.596;5.284;2023-03-14T08:00:42;6.07;;;1.40;;
22234;SDS011;11286;45.596;5.284;2023-03-14T08:03:08;3.25;;;1.73;;
22234;SDS011;11286;45.596;5.284;2023-03-14T08:05:37;4.22;;;1.20;;
22234;SDS011;11286;45.596;5.284;2023-03-14T08:08:03;4.13;;;1.10;;
22234;SDS011;11286;45.596;5.284;2023-03-14T08:10:30;3.42;;;1.10;;
22234;SDS011;11286;45.596;5.284;2023-03-14T08:12:56;3.30;;;1.20;;
22234;SDS011;11286;45.596;5.284;2023-03-14T08:15:24;6.32;;;1.27;;
22234;SDS011;11286;45.596;5.284;2023-03-14T08:17:50;1.67;;;1.08;;
22234;SDS011;11286;45.596;5.284;2023-03-14T08:20:16;4.07;;;1.20;;
22234;SDS011;11286;45.596;5.284;2023-03-14T08:22:43;3.22;;;1.27;;
22234;SDS011;11286;45.596;5.284;2023-03-14T08:25:08;2.65;;;1.15;;
22234;SDS011;11286;45.596;5.284;2023-03-14T08:27:34;4.53;;;1.30;;
22234;SDS011;11286;45.596;5.284;2023-03-14T08:30:02;3.13;;;1.40;;
22234;SDS011;11286;45.596;5.284;2023-03-14T08:32:29;3.20;;;1.30;;
22234;SDS011;11286;45.596;5.284;2023-03-14T08:34:55;5.15;;;1.20;;
22234;SDS011;11286;45.596;5.284;2023-03-14T08:37:21;3.03;;;1.10;;
22234;SDS011;11286;45.596;5.284;2023-03-14T08:39:46;4.53;;;1.50;;
22234;SDS011;11286;45.596;5.284;2023-03-14T08:42:12;5.60;;;1.40;;
22234;SDS011;11286;45.596;5.284;2023-03-14T08:44:38;5.28;;;1.02;;
22234;SDS011;11286;45.596;5.284;2023-03-14T08:47:04;3.22;;;1.17;;
22234;SDS011;11286;45.596;5.284;2023-03-14T08:49:29;2.25;;;0.90;;
22234;SDS011;11286;45.596;5.284;2023-03-14T08:51:55;4.50;;;1.00;;
22234;SDS011;11286;45.596;5.284;2023-03-14T08:54:20;3.10;;;1.00;;
22234;SDS011;11286;45.596;5.284;2023-03-14T08:56:46;3.53;;;1.23;;
22234;SDS011;11286;45.596;5.284;2023-03-14T08:59:12;4.70;;;1.30;;
22234;SDS011;11286;45.596;5.284;2023-03-14T09:01:37;2.10;;;1.02;;
22234;SDS011;11286;45.596;5.284;2023-03-14T09:04:03;3.40;;;1.30;;
22234;SDS011;11286;45.596;5.284;2023-03-14T09:06:29;3.53;;;1.45;;
22234;SDS011;11286;45.596;5.284;2023-03-14T09:08:54;7.65;;;1.50;;
22234;SDS011;11286;45.596;5.284;2023-03-14T09:11:20;4.03;;;1.48;;
22234;SDS011;11286;45.596;5.284;2023-03-14T09:13:46;4.38;;;1.30;;
22234;SDS011;11286;45.596;5.284;2023-03-14T09:16:11;4.30;;;1.10;;
22234;SDS011;11286;45.596;5.284;2023-03-14T09:18:37;4.45;;;1.20;;
22234;SDS011;11286;45.596;5.284;2023-03-14T09:21:03;6.45;;;1.33;;
22234;SDS011;11286;45.596;5.284;2023-03-14T09:23:28;4.72;;;1.15;;
22234;SDS011;11286;45.596;5.284;2023-03-14T09:25:57;2.28;;;1.20;;
22234;SDS011;11286;45.596;5.284;2023-03-14T09:28:24;2.35;;;1.05;;
22234;SDS011;11286;45.596;5.284;2023-03-14T09:30:50;2.72;;;1.02;;
22234;SDS011;11286;45.596;5.284;2023-03-14T09:33:16;2.10;;;1.33;;
22234;SDS011;11286;45.596;5.284;2023-03-14T09:35:42;3.38;;;1.15;;
22234;SDS011;11286;45.596;5.284;2023-03-14T09:38:08;3.63;;;1.00;;
22234;SDS011;11286;45.596;5.284;2023-03-14T09:40:34;2.55;;;1.67;;
22234;SDS011;11286;45.596;5.284;2023-03-14T09:43:01;3.28;;;1.10;;
22234;SDS011;11286;45.596;5.284;2023-03-14T09:48:01;3.03;;;1.20;;
22234;SDS011;11286;45.596;5.284;2023-03-14T09:51:11;4.93;;;1.48;;
22234;SDS011;11286;45.596;5.284;2023-03-14T09:53:43;3.78;;;1.00;;
22234;SDS011;11286;45.596;5.284;2023-03-14T09:56:14;4.07;;;1.10;;
22234;SDS011;11286;45.596;5.284;2023-03-14T09:58:43;4.70;;;1.15;;
22234;SDS011;11286;45.596;5.284;2023-03-14T10:01:25;4.22;;;1.40;;
22234;SDS011;11286;45.596;5.284;2023-03-14T10:03:54;5.95;;;1.50;;
22234;SDS011;11286;45.596;5.284;2023-03-14T10:06:26;6.55;;;1.52;;
22234;SDS011;11286;45.596;5.284;2023-03-14T10:08:53;5.03;;;1.95;;
22234;SDS011;11286;45.596;5.284;2023-03-14T10:11:20;6.43;;;1.55;;
22234;SDS011;11286;45.596;5.284;2023-03-14T10:14:02;1.17;;;0.70;;
22234;SDS011;11286;45.596;5.284;2023-03-14T10:16:37;2.42;;;0.98;;
22234;SDS011;11286;45.596;5.284;2023-03-14T10:19:07;0.85;;;0.45;;
22234;SDS011;11286;45.596;5.284;2023-03-14T10:21:50;1.17;;;0.50;;
22234;SDS011;11286;45.596;5.284;2023-03-14T10:24:30;1.35;;;0.50;;
22234;SDS011;11286;45.596;5.284;2023-03-14T10:27:03;2.22;;;0.60;;
22234;SDS011;11286;45.596;5.284;2023-03-14T10:29:34;1.65;;;0.55;;
22234;SDS011;11286;45.596;5.284;2023-03-14T10:32:18;2.78;;;0.82;;
22234;SDS011;11286;45.596;5.284;2023-03-14T10:34:45;1.90;;;0.80;;
22234;SDS011;11286;45.596;5.284;2023-03-14T10:37:56;2.28;;;0.90;;
22234;SDS011;11286;45.596;5.284;2023-03-14T10:40:28;1.83;;;0.80;;
22234;SDS011;11286;45.596;5.284;2023-03-14T10:43:00;1.33;;;0.80;;
22234;SDS011;11286;45.596;5.284;2023-03-14T10:48:23;1.00;;;0.70;;
22234;SDS011;11286;45.596;5.284;2023-03-14T10:53:34;2.90;;;0.82;;
22234;SDS011;11286;45.596;5.284;2023-03-14T10:56:05;2.05;;;1.10;;
22234;SDS011;11286;45.596;5.284;2023-03-14T10:58:33;2.13;;;0.82;;
22234;SDS011;11286;45.596;5.284;2023-03-14T11:09:42;1.60;;;0.63;;
22234;SDS011;11286;45.596;5.284;2023-03-14T11:43:11;2.17;;;0.80;;
22234;SDS011;11286;45.596;5.284;2023-03-14T11:45:54;1.75;;;0.88;;
22234;SDS011;11286;45.596;5.284;2023-03-14T11:51:02;3.40;;;1.70;;
22234;SDS011;11286;45.596;5.284;2023-03-14T11:57:05;3.95;;;1.13;;
22234;SDS011;11286;45.596;5.284;2023-03-14T12:02:15;3.47;;;1.30;;
22234;SDS011;11286;45.596;5.284;2023-03-14T12:10:29;2.08;;;0.70;;
22234;SDS011;11286;45.596;5.284;2023-03-14T12:12:55;2.33;;;1.00;;
22234;SDS011;11286;45.596;5.284;2023-03-14T12:15:22;2.60;;;0.90;;
22234;SDS011;11286;45.596;5.284;2023-03-14T12:17:55;1.92;;;0.80;;
22234;SDS011;11286;45.596;5.284;2023-03-14T12:20:24;4.63;;;1.00;;
22234;SDS011;11286;45.596;5.284;2023-03-14T12:23:01;2.38;;;0.70;;
22234;SDS011;11286;45.596;5.284;2023-03-14T12:25:30;1.75;;;0.65;;
22234;SDS011;11286;45.596;5.284;2023-03-14T12:35:43;2.85;;;0.98;;
22234;SDS011;11286;45.596;5.284;2023-03-14T12:43:27;2.00;;;1.10;;
22234;SDS011;11286;45.596;5.284;2023-03-14T12:48:39;3.13;;;0.90;;
22234;SDS011;11286;45.596;5.284;2023-03-14T12:51:12;2.97;;;0.90;;
22234;SDS011;11286;45.596;5.284;2023-03-14T12:58:58;2.15;;;0.70;;
22234;SDS011;11286;45.596;5.284;2023-03-14T13:01:31;1.50;;;0.80;;
22234;SDS011;11286;45.596;5.284;2023-03-14T13:04:02;2.20;;;0.70;;
22234;SDS011;11286;45.596;5.284;2023-03-14T13:12:14;3.20;;;0.98;;
22234;SDS011;11286;45.596;5.284;2023-03-14T13:14:45;2.78;;;0.90;;
22234;SDS011;11286;45.596;5.284;2023-03-14T13:17:14;2.20;;;0.70;;
22234;SDS011;11286;45.596;5.284;2023-03-14T13:19:44;1.45;;;0.82;;
22234;SDS011;11286;45.596;5.284;2023-03-14T13:22:26;3.85;;;0.90;;
22234;SDS011;11286;45.596;5.284;2023-03-14T13:25:00;2.75;;;0.80;;
22234;SDS011;11286;45.596;5.284;2023-03-14T13:27:29;3.58;;;1.30;;
22234;SDS011;11286;45.596;5.284;2023-03-14T13:29:56;3.40;;;0.98;;
22234;SDS011;11286;45.596;5.284;2023-03-14T13:32:26;4.15;;;1.33;;
22234;SDS011;11286;45.596;5.284;2023-03-14T13:34:59;4.25;;;1.10;;
22234;SDS011;11286;45.596;5.284;2023-03-14T13:37:25;2.92;;;1.05;;
22234;SDS011;11286;45.596;5.284;2023-03-14T13:39:53;2.50;;;1.08;;
22234;SDS011;11286;45.596;5.284;2023-03-14T13:42:20;3.20;;;1.00;;
22234;SDS011;11286;45.596;5.284;2023-03-14T13:44:49;1.25;;;0.80;;
22234;SDS011;11286;45.596;5.284;2023-03-14T13:47:18;2.70;;;1.60;;
22234;SDS011;11286;45.596;5.284;2023-03-14T13:49:46;2.10;;;1.00;;
22234;SDS011;11286;45.596;5.284;2023-03-14T13:55:03;2.47;;;1.05;;
22234;SDS011;11286;45.596;5.284;2023-03-14T14:00:17;3.50;;;1.10;;
22234;SDS011;11286;45.596;5.284;2023-03-14T14:02:45;2.35;;;1.00;;
22234;SDS011;11286;45.596;5.284;2023-03-14T14:05:11;2.40;;;0.95;;
22234;SDS011;11286;45.596;5.284;2023-03-14T14:07:38;2.35;;;1.10;;
22234;SDS011;11286;45.596;5.284;2023-03-14T14:10:04;2.40;;;0.98;;
22234;SDS011;11286;45.596;5.284;2023-03-14T14:12:38;4.50;;;1.25;;
22234;SDS011;11286;45.596;5.284;2023-03-14T14:15:19;5.13;;;1.48;;
22234;SDS011;11286;45.596;5.284;2023-03-14T14:17:52;2.67;;;1.00;;
22234;SDS011;11286;45.596;5.284;2023-03-14T14:22:46;2.78;;;1.00;;
22234;SDS011;11286;45.596;5.284;2023-03-14T14:25:13;5.75;;;1.02;;
22234;SDS011;11286;45.596;5.284;2023-03-14T14:27:41;3.05;;;0.80;;
22234;SDS011;11286;45.596;5.284;2023-03-14T14:32:42;3.58;;;1.13;;
22234;SDS011;11286;45.596;5.284;2023-03-14T14:35:10;2.22;;;1.05;;
22234;SDS011;11286;45.596;5.284;2023-03-14T14:37:57;3.60;;;1.30;;
22234;SDS011;11286;45.596;5.284;2023-03-14T14:40:23;2.17;;;0.98;;
22234;SDS011;11286;45.596;5.284;2023-03-14T14:42:51;3.60;;;1.10;;
22234;SDS011;11286;45.596;5.284;2023-03-14T14:45:18;2.85;;;1.10;;
22234;SDS011;11286;45.596;5.284;2023-03-14T14:47:49;3.03;;;1.02;;
22234;SDS011;11286;45.596;5.284;2023-03-14T14:51:06;2.50;;;1.00;;
22234;SDS011;11286;45.596;5.284;2023-03-14T14:53:45;3.75;;;1.38;;
22234;SDS011;11286;45.596;5.284;2023-03-14T14:58:47;3.85;;;1.00;;
22234;SDS011;11286;45.596;5.284;2023-03-14T15:01:14;3.03;;;1.02;;
22234;SDS011;11286;45.596;5.284;2023-03-14T15:03:49;2.88;;;1.15;;
22234;SDS011;11286;45.596;5.284;2023-03-14T15:06:16;2.67;;;1.08;;
22234;SDS011;11286;45.596;5.284;2023-03-14T15:08:43;2.92;;;1.25;;
22234;SDS011;11286;45.596;5.284;2023-03-14T15:11:17;3.70;;;1.58;;
22234;SDS011;11286;45.596;5.284;2023-03-14T15:13:47;3.28;;;1.17;;
22234;SDS011;11286;45.596;5.284;2023-03-14T15:16:17;4.57;;;1.33;;
22234;SDS011;11286;45.596;5.284;2023-03-14T15:18:47;4.53;;;1.45;;
22234;SDS011;11286;45.596;5.284;2023-03-14T15:21:20;3.72;;;1.42;;
22234;SDS011;11286;45.596;5.284;2023-03-14T15:23:46;4.28;;;1.70;;
22234;SDS011;11286;45.596;5.284;2023-03-14T15:26:16;3.22;;;1.50;;
22234;SDS011;11286;45.596;5.284;2023-03-14T15:28:43;3.42;;;1.20;;
22234;SDS011;11286;45.596;5.284;2023-03-14T15:31:11;4.63;;;1.60;;
22234;SDS011;11286;45.596;5.284;2023-03-14T15:33:37;5.15;;;1.70;;
22234;SDS011;11286;45.596;5.284;2023-03-14T15:36:03;3.20;;;1.15;;
22234;SDS011;11286;45.596;5.284;2023-03-14T15:38:31;3.05;;;1.23;;
22234;SDS011;11286;45.596;5.284;2023-03-14T15:40:56;4.40;;;1.35;;
22234;SDS011;11286;45.596;5.284;2023-03-14T15:43:22;3.08;;;1.20;;
22234;SDS011;11286;45.596;5.284;2023-03-14T15:45:48;4.22;;;1.42;;
22234;SDS011;11286;45.596;5.284;2023-03-14T15:48:16;3.75;;;1.23;;
22234;SDS011;11286;45.596;5.284;2023-03-14T15:50:43;4.20;;;1.35;;
22234;SDS011;11286;45.596;5.284;2023-03-14T15:53:10;3.20;;;1.40;;
22234;SDS011;11286;45.596;5.284;2023-03-14T15:55:36;3.95;;;1.40;;
22234;SDS011;11286;45.596;5.284;2023-03-14T15:58:02;3.80;;;1.10;;
22234;SDS011;11286;45.596;5.284;2023-03-14T16:00:28;3.95;;;1.50;;
22234;SDS011;11286;45.596;5.284;2023-03-14T16:02:54;4.20;;;1.20;;
22234;SDS011;11286;45.596;5.284;2023-03-14T16:05:20;4.70;;;1.30;;
22234;SDS011;11286;45.596;5.284;2023-03-14T16:07:46;5.60;;;1.30;;
22234;SDS011;11286;45.596;5.284;2023-03-14T16:10:13;2.47;;;1.20;;
22234;SDS011;11286;45.596;5.284;2023-03-14T16:12:40;3.63;;;1.10;;
22234;SDS011;11286;45.596;5.284;2023-03-14T16:15:06;4.25;;;1.40;;
22234;SDS011;11286;45.596;5.284;2023-03-14T16:17:32;3.20;;;1.15;;
22234;SDS011;11286;45.596;5.284;2023-03-14T16:19:59;8.68;;;1.77;;
22234;SDS011;11286;45.596;5.284;2023-03-14T16:22:25;5.60;;;1.30;;
22234;SDS011;11286;45.596;5.284;2023-03-14T16:24:51;3.90;;;1.30;;
22234;SDS011;11286;45.596;5.284;2023-03-14T16:27:16;4.28;;;1.23;;
22234;SDS011;11286;45.596;5.284;2023-03-14T16:29:42;6.10;;;1.30;;
22234;SDS011;11286;45.596;5.284;2023-03-14T16:32:08;4.03;;;1.30;;
22234;SDS011;11286;45.596;5.284;2023-03-14T16:34:36;4.35;;;1.40;;
22234;SDS011;11286;45.596;5.284;2023-03-14T16:37:04;2.75;;;0.88;;
22234;SDS011;11286;45.596;5.284;2023-03-14T16:39:30;3.05;;;1.10;;
22234;SDS011;11286;45.596;5.284;2023-03-14T16:41:56;2.97;;;1.10;;